A Sesimbrense — CULL2 — position and weather

sailwx.info

Track history (hours):
 
Tides and Currents Weather Stations Pressure Air Temp Water Temp Dewpoint Dewpoint Depression Visibility Wind Speed Wind Dir Waves Ship Positions

A Sesimbrense

Last reported at 2017-Dec-18 15:28 UTC. Time now 2017-Dec-18 16:50 UTC.
Position N 38°26' W 009°07'.

Length 16 m.

Type: Fishing. MMSI: 263410370.

Date/timePositionNaut miles runAvg speedWind from/ knotsBaromVisibWave heightAir tempDewpointWater temp
2017-Dec-18 15:28N 38°26' W 009°07'  
2017-Dec-14 11:51N 38°26' W 009°07'0 0.0
2017-Dec-14 11:29N 38°26' W 009°07'0 0.0
2017-Dec-14 11:00N 38°26' W 009°07'0 0.0
2017-Dec-14 10:30N 38°26' W 009°07'0 0.0
2017-Dec-14 09:59N 38°26' W 009°07'0 0.0
2017-Dec-14 09:29N 38°26' W 009°07'0 0.0
2017-Dec-13 13:46N 38°26' W 009°07'0 0.3
2017-Dec-13 13:30N 38°26' W 009°07'0 0.0
2017-Dec-13 13:01N 38°26' W 009°07'0 0.0
2017-Dec-13 12:31N 38°26' W 009°07'4 5.3
2017-Dec-13 11:50N 38°25' W 009°11'2 6.7
2017-Dec-13 11:29N 38°25' W 009°14'4 8.1
2017-Dec-13 11:00N 38°29' W 009°13'3 6.9
2017-Dec-13 10:30N 38°32' W 009°13'0 0.2
2017-Dec-13 10:00N 38°32' W 009°13'0 0.0
2017-Dec-13 09:30N 38°32' W 009°13'0 0.2
2017-Dec-13 09:01N 38°32' W 009°13'1 1.4
2017-Dec-13 08:31N 38°31' W 009°13'0 0.6
2017-Dec-13 08:00N 38°32' W 009°13'0 1.0
2017-Dec-13 07:30N 38°32' W 009°13'2 4.0
2017-Dec-13 06:59N 38°34' W 009°14'1 2.5
2017-Dec-13 06:31N 38°33' W 009°14'4 7.2
2017-Dec-13 05:59N 38°29' W 009°13'4 7.8
2017-Dec-13 05:29N 38°25' W 009°14'4 7.3
2017-Dec-13 04:52N 38°25' W 009°09'2 3.3
2017-Dec-13 04:09N 38°26' W 009°06'0 1.7
2017-Dec-13 04:00N 38°26' W 009°07'0 0.0
2017-Dec-12 18:29N 38°26' W 009°07'2 4.8
2017-Dec-12 18:00N 38°26' W 009°04'0 0.2
2017-Dec-12 17:30N 38°26' W 009°04'2 3.4
2017-Dec-12 17:00N 38°25' W 009°06'5 8.0
2017-Dec-12 16:22N 38°24' W 009°12'5 6.1
2017-Dec-12 15:29N 38°25' W 009°06'1 2.8
2017-Dec-12 15:00N 38°26' W 009°04'0 0.1
2017-Dec-12 14:30N 38°26' W 009°04'2 4.4
2017-Dec-12 14:00N 38°26' W 009°07'  
2017-Dec-09 10:52N 38°26' W 009°07'0 0.0
2017-Dec-09 10:30N 38°26' W 009°07'0 0.0
2017-Dec-09 10:00N 38°26' W 009°07'0 0.0
2017-Dec-09 09:30N 38°26' W 009°07'  
Track history (hours):
 
Tides and Currents Weather Stations Pressure Air Temp Water Temp Dewpoint Dewpoint Depression Visibility Wind Speed Wind Dir Waves Ship Positions

A Sesimbrense

Last reported at 2017-Dec-18 15:28 UTC. Time now 2017-Dec-18 16:50 UTC.
Position N 38°26' W 009°07'.

Length 16 m.

Type: Fishing. MMSI: 263410370.

Date/timePositionNaut miles runAvg speedWind from/ knotsBaromVisibWave heightAir tempDewpointWater temp
2017-Dec-18 15:28N 38°26' W 009°07'  
2017-Dec-14 11:51N 38°26' W 009°07'0 0.0
2017-Dec-14 11:29N 38°26' W 009°07'0 0.0
2017-Dec-14 11:00N 38°26' W 009°07'0 0.0
2017-Dec-14 10:30N 38°26' W 009°07'0 0.0
2017-Dec-14 09:59N 38°26' W 009°07'0 0.0
2017-Dec-14 09:29N 38°26' W 009°07'0 0.0
2017-Dec-13 13:46N 38°26' W 009°07'0 0.3
2017-Dec-13 13:30N 38°26' W 009°07'0 0.0
2017-Dec-13 13:01N 38°26' W 009°07'0 0.0
2017-Dec-13 12:31N 38°26' W 009°07'4 5.3
2017-Dec-13 11:50N 38°25' W 009°11'2 6.7
2017-Dec-13 11:29N 38°25' W 009°14'4 8.1
2017-Dec-13 11:00N 38°29' W 009°13'3 6.9
2017-Dec-13 10:30N 38°32' W 009°13'0 0.2
2017-Dec-13 10:00N 38°32' W 009°13'0 0.0
2017-Dec-13 09:30N 38°32' W 009°13'0 0.2
2017-Dec-13 09:01N 38°32' W 009°13'1 1.4
2017-Dec-13 08:31N 38°31' W 009°13'0 0.6
2017-Dec-13 08:00N 38°32' W 009°13'0 1.0
2017-Dec-13 07:30N 38°32' W 009°13'2 4.0
2017-Dec-13 06:59N 38°34' W 009°14'1 2.5
2017-Dec-13 06:31N 38°33' W 009°14'4 7.2
2017-Dec-13 05:59N 38°29' W 009°13'4 7.8
2017-Dec-13 05:29N 38°25' W 009°14'4 7.3
2017-Dec-13 04:52N 38°25' W 009°09'2 3.3
2017-Dec-13 04:09N 38°26' W 009°06'0 1.7
2017-Dec-13 04:00N 38°26' W 009°07'0 0.0
2017-Dec-12 18:29N 38°26' W 009°07'2 4.8
2017-Dec-12 18:00N 38°26' W 009°04'0 0.2
2017-Dec-12 17:30N 38°26' W 009°04'2 3.4
2017-Dec-12 17:00N 38°25' W 009°06'5 8.0
2017-Dec-12 16:22N 38°24' W 009°12'5 6.1
2017-Dec-12 15:29N 38°25' W 009°06'1 2.8
2017-Dec-12 15:00N 38°26' W 009°04'0 0.1
2017-Dec-12 14:30N 38°26' W 009°04'2 4.4
2017-Dec-12 14:00N 38°26' W 009°07'  
2017-Dec-09 10:52N 38°26' W 009°07'0 0.0
2017-Dec-09 10:30N 38°26' W 009°07'0 0.0
2017-Dec-09 10:00N 38°26' W 009°07'0 0.0
2017-Dec-09 09:30N 38°26' W 009°07'  

Dump ship's entire track history